createdAt,value
2019-06-07T00:00:40.667Z,19.27
2019-06-07T00:03:23.653Z,24.77
2019-06-07T00:05:45.860Z,23.10
2019-06-07T00:08:26.956Z,22.70
2019-06-07T00:10:50.197Z,19.13
2019-06-07T00:13:21.494Z,19.03
2019-06-07T00:15:52.513Z,19.70
2019-06-07T00:18:25.971Z,22.87
2019-06-07T00:23:26.891Z,21.17
2019-06-07T00:25:58.015Z,22.47
2019-06-07T00:28:29.365Z,20.27
2019-06-07T00:31:02.090Z,20.53
2019-06-07T00:33:33.542Z,24.33
2019-06-07T00:36:04.668Z,24.00
2019-06-07T00:38:36.055Z,23.47
2019-06-07T00:41:07.415Z,27.87
2019-06-07T00:43:38.759Z,20.73
2019-06-07T00:46:14.063Z,27.30
2019-06-07T00:48:42.944Z,23.43
2019-06-07T00:51:16.905Z,24.77
2019-06-07T00:53:46.903Z,27.50
2019-06-07T00:56:20.271Z,25.33
2019-06-07T00:59:10.193Z,24.00
2019-06-07T01:01:25.522Z,28.20
2019-06-07T01:03:57.100Z,30.17
2019-06-07T01:06:28.232Z,26.33
2019-06-07T01:08:59.440Z,28.97
2019-06-07T01:11:31.067Z,23.30
2019-06-07T01:14:02.361Z,24.23
2019-06-07T01:16:55.749Z,26.57
2019-06-07T01:19:08.230Z,27.30
2019-06-07T01:21:39.989Z,26.20
2019-06-07T01:26:41.239Z,23.60
2019-06-07T01:29:12.948Z,26.30
2019-06-07T01:31:44.675Z,27.63
2019-06-07T01:34:16.193Z,20.43
2019-06-07T01:36:47.376Z,24.23
2019-06-07T01:39:16.425Z,23.83
2019-06-07T01:41:47.449Z,29.53
2019-06-07T01:44:22.710Z,25.73
2019-06-07T01:46:51.984Z,24.73
2019-06-07T01:49:27.425Z,22.33
2019-06-07T01:51:56.016Z,24.63
2019-06-07T01:54:55.921Z,26.07
2019-06-07T01:57:01.038Z,29.00
2019-06-07T01:59:32.412Z,21.03
2019-06-07T02:02:03.462Z,20.03
2019-06-07T02:04:34.765Z,26.80
2019-06-07T02:07:06.553Z,28.70
2019-06-07T02:09:37.769Z,31.00
2019-06-07T02:12:25.113Z,23.77
2019-06-07T02:14:42.133Z,25.40
2019-06-07T02:17:13.966Z,26.00
2019-06-07T02:19:45.724Z,24.53
2019-06-07T02:22:17.646Z,26.63
2019-06-07T02:25:33.885Z,26.87
2019-06-07T02:27:24.643Z,26.03
2019-06-07T02:29:56.940Z,27.23
2019-06-07T02:32:34.714Z,25.70
2019-06-07T02:35:03.260Z,23.73
2019-06-07T02:37:36.844Z,23.37
2019-06-07T02:40:08.276Z,26.17
2019-06-07T02:42:42.657Z,23.40
2019-06-07T02:45:13.576Z,23.67
2019-06-07T02:47:46.495Z,23.93
2019-06-07T02:50:19.424Z,31.40
2019-06-07T02:52:50.823Z,28.10
2019-06-07T02:55:24.889Z,41.70
2019-06-07T02:57:55.515Z,34.07
2019-06-07T03:01:08.938Z,24.87
2019-06-07T03:03:22.248Z,28.73
2019-06-07T03:05:54.319Z,39.33
2019-06-07T03:08:26.323Z,28.43
2019-06-07T03:10:57.762Z,26.30
2019-06-07T03:13:31.929Z,28.23
2019-06-07T03:16:06.743Z,31.10
2019-06-07T03:19:07.731Z,31.70
2019-06-07T03:21:42.678Z,33.53
2019-06-07T03:24:13.788Z,36.30
2019-06-07T03:27:31.762Z,28.60
2019-06-07T03:29:17.139Z,27.40
2019-06-07T03:31:48.940Z,30.20
2019-06-07T03:34:20.517Z,31.70
2019-06-07T03:36:52.294Z,24.87
2019-06-07T03:39:25.261Z,28.37
2019-06-07T03:42:06.235Z,31.10
2019-06-07T03:44:35.087Z,30.83
2019-06-07T03:47:03.172Z,29.23
2019-06-07T03:49:37.507Z,31.97
2019-06-07T03:52:08.240Z,31.57
2019-06-07T03:54:39.917Z,34.57
2019-06-07T03:57:12.757Z,30.13
2019-06-07T03:59:45.846Z,37.80
2019-06-07T04:02:17.493Z,33.33
2019-06-07T04:04:49.777Z,36.13
2019-06-07T04:07:21.908Z,31.60
2019-06-07T04:09:53.597Z,32.70
2019-06-07T04:12:25.541Z,40.47
2019-06-07T04:14:57.237Z,33.10
2019-06-07T04:17:31.150Z,26.63
2019-06-07T04:20:02.308Z,29.10
2019-06-07T04:22:38.877Z,29.67
2019-06-07T04:25:10.198Z,26.77
2019-06-07T04:27:42.052Z,25.30
2019-06-07T04:30:13.844Z,27.30
2019-06-07T04:32:45.667Z,24.60
2019-06-07T04:35:17.474Z,23.10
2019-06-07T04:37:49.327Z,23.10
2019-06-07T04:40:21.080Z,23.67
2019-06-07T04:42:52.903Z,21.43
2019-06-07T04:45:40.673Z,27.27
2019-06-07T04:48:00.617Z,27.07
2019-06-07T04:50:34.284Z,23.10
2019-06-07T04:53:06.245Z,25.20
2019-06-07T04:55:39.855Z,23.47
2019-06-07T04:58:09.854Z,24.27
2019-06-07T05:00:54.185Z,25.27
2019-06-07T05:03:13.870Z,26.93
2019-06-07T05:05:45.051Z,25.20
2019-06-07T05:08:27.472Z,24.03
2019-06-07T05:10:48.926Z,24.53
2019-06-07T05:13:19.829Z,24.47
2019-06-07T05:15:50.800Z,22.90
2019-06-07T05:18:21.759Z,26.77
2019-06-07T05:20:52.693Z,26.90
2019-06-07T05:24:02.508Z,24.20
2019-06-07T05:25:56.259Z,22.97
2019-06-07T05:28:28.219Z,22.20
2019-06-07T05:31:04.361Z,28.30
2019-06-07T05:33:35.083Z,33.67
2019-06-07T05:36:04.261Z,29.77
2019-06-07T05:38:36.086Z,24.37
2019-06-07T05:41:07.743Z,27.30
2019-06-07T05:43:44.673Z,23.90
2019-06-07T05:46:15.783Z,24.80
2019-06-07T05:51:50.045Z,23.10
2019-06-07T05:54:23.156Z,55.53
2019-06-07T05:56:54.240Z,36.13
2019-06-07T05:59:25.351Z,26.57
2019-06-07T06:02:24.660Z,28.57
2019-06-07T06:05:29.910Z,23.80
2019-06-07T06:07:58.349Z,21.83
2019-06-07T06:10:31.428Z,22.17
2019-06-07T06:13:04.175Z,23.83
2019-06-07T06:26:00.357Z,28.63
2019-06-07T06:28:32.034Z,24.70
2019-06-07T06:31:07.593Z,25.13
2019-06-07T06:33:39.723Z,29.13
2019-06-07T06:36:11.861Z,27.53
2019-06-07T06:38:46.366Z,27.00
2019-06-07T06:41:18.357Z,31.13
2019-06-07T06:43:52.574Z,37.23
2019-06-07T06:46:38.183Z,25.67
2019-06-07T06:48:57.227Z,20.83
2019-06-07T06:52:00.305Z,24.20
2019-06-07T06:54:40.845Z,17.70
2019-06-07T06:57:19.058Z,28.10
2019-06-07T06:59:41.785Z,24.57
2019-06-07T07:02:15.145Z,54.67
2019-06-07T07:04:48.732Z,49.27
2019-06-07T07:07:22.063Z,30.47
2019-06-07T07:09:59.092Z,20.13
2019-06-07T07:12:28.193Z,17.53
2019-06-07T07:14:59.971Z,19.13
2019-06-07T07:17:47.603Z,19.17
2019-06-07T07:20:06.290Z,20.77
2019-06-07T07:22:38.433Z,21.93
2019-06-07T07:25:10.927Z,20.03
2019-06-07T07:27:44.633Z,21.20
2019-06-07T07:30:37.031Z,16.63
2019-06-07T07:32:54.177Z,21.13
2019-06-07T07:35:27.841Z,19.97
2019-06-07T07:38:00.306Z,18.20
2019-06-07T07:40:57.207Z,22.10
2019-06-07T07:43:11.005Z,20.03
2019-06-07T07:45:45.901Z,23.00
2019-06-07T07:48:18.652Z,20.30
2019-06-07T07:50:54.575Z,19.13
2019-06-07T07:53:24.981Z,18.10
2019-06-07T07:55:59.938Z,19.30
2019-06-07T07:58:29.982Z,16.07
2019-06-07T08:01:10.118Z,15.97
2019-06-07T08:03:34.938Z,20.50
2019-06-07T08:06:06.401Z,27.97
2019-06-07T08:08:38.137Z,18.87
2019-06-07T08:11:09.820Z,17.70
2019-06-07T08:13:41.542Z,16.10
2019-06-07T08:16:16.519Z,17.83
2019-06-07T08:18:50.937Z,22.47
2019-06-07T08:21:25.392Z,18.47
2019-06-07T08:23:58.293Z,18.27
2019-06-07T08:26:27.928Z,24.47
2019-06-07T08:29:02.663Z,19.70
2019-06-07T08:31:32.480Z,22.30
2019-06-07T08:34:04.161Z,18.57
2019-06-07T08:36:42.391Z,20.47
2019-06-07T08:39:10.416Z,17.33
2019-06-07T08:41:53.805Z,18.87
2019-06-07T08:44:23.327Z,17.40
2019-06-07T08:46:55.645Z,18.90
2019-06-07T08:49:22.471Z,18.90
2019-06-07T08:51:57.712Z,18.87
2019-06-07T08:54:25.818Z,16.80
2019-06-07T08:57:17.981Z,19.20
2019-06-07T08:59:29.023Z,20.77
2019-06-07T09:02:03.553Z,17.87
2019-06-07T09:04:32.377Z,21.47
2019-06-07T09:07:14.860Z,18.87
2019-06-07T09:09:35.747Z,20.33
2019-06-07T09:12:10.718Z,19.73
2019-06-07T09:14:58.964Z,16.93
2019-06-07T09:17:12.606Z,17.80
2019-06-07T09:19:43.794Z,18.33
2019-06-07T09:22:14.704Z,17.23
2019-06-07T09:24:45.776Z,16.73
2019-06-07T09:27:16.996Z,20.73
2019-06-07T09:29:48.375Z,16.50
2019-06-07T09:32:19.328Z,17.80
2019-06-07T09:34:50.329Z,18.47
2019-06-07T09:38:03.577Z,19.10
2019-06-07T09:39:53.089Z,18.37
2019-06-07T09:42:23.830Z,16.80
2019-06-07T09:44:54.665Z,27.63
2019-06-07T09:47:32.442Z,16.10
2019-06-07T09:50:02.359Z,18.77
2019-06-07T09:52:31.325Z,21.30
2019-06-07T09:55:09.072Z,17.10
2019-06-07T09:57:34.724Z,15.33
2019-06-07T10:00:38.168Z,17.40
2019-06-07T10:02:42.449Z,18.60
2019-06-07T10:05:14.303Z,18.40
2019-06-07T10:08:00.167Z,19.87
2019-06-07T10:12:50.679Z,17.70
2019-06-07T10:15:21.662Z,22.23
2019-06-07T10:17:52.587Z,15.57
2019-06-07T10:20:23.598Z,16.87
2019-06-07T10:22:54.484Z,17.07
2019-06-07T10:25:25.356Z,17.73
2019-06-07T10:27:56.230Z,15.70
2019-06-07T10:30:27.273Z,16.00
2019-06-07T10:32:58.086Z,17.93
2019-06-07T10:35:29.854Z,15.90
2019-06-07T10:38:00.702Z,14.40
2019-06-07T10:40:32.750Z,13.57
2019-06-07T10:43:05.055Z,19.23
2019-06-07T10:45:35.934Z,20.30
2019-06-07T10:48:07.710Z,14.37
2019-06-07T10:50:38.481Z,18.03
2019-06-07T10:53:10.585Z,12.67
2019-06-07T10:55:41.814Z,18.70
2019-06-07T10:58:13.283Z,16.70
2019-06-07T11:00:44.378Z,14.53
2019-06-07T11:03:15.144Z,16.03
2019-06-07T11:05:45.934Z,14.03
2019-06-07T11:08:16.864Z,16.50
2019-06-07T11:10:47.677Z,31.43
2019-06-07T11:13:18.524Z,17.23
2019-06-07T11:15:49.398Z,14.07
2019-06-07T11:18:20.348Z,17.53
2019-06-07T11:20:51.317Z,12.47
2019-06-07T11:23:22.424Z,13.07
2019-06-07T11:25:53.295Z,13.77
2019-06-07T11:28:24.151Z,13.23
2019-06-07T11:30:54.978Z,15.33
2019-06-07T11:33:25.719Z,17.00
2019-06-07T11:35:56.652Z,21.37
2019-06-07T11:38:27.523Z,16.80
2019-06-07T11:40:58.426Z,14.73
2019-06-07T11:43:29.394Z,17.13
2019-06-07T11:46:00.710Z,18.63
2019-06-07T11:48:31.600Z,15.20
2019-06-07T11:51:02.519Z,13.93
2019-06-07T11:53:33.481Z,16.70
2019-06-07T11:56:04.545Z,17.40
2019-06-07T11:58:35.484Z,16.40
2019-06-07T12:01:07.578Z,13.83
2019-06-07T12:03:38.718Z,14.60
2019-06-07T12:06:10.028Z,17.80
2019-06-07T12:08:41.046Z,17.77
2019-06-07T12:11:12.189Z,16.53
2019-06-07T12:13:44.260Z,18.50
2019-06-07T12:16:15.463Z,20.93
2019-06-07T12:18:46.449Z,18.43
2019-06-07T12:21:18.031Z,17.47
2019-06-07T12:23:49.173Z,18.57
2019-06-07T12:26:20.684Z,13.03
2019-06-07T12:28:51.821Z,13.80
2019-06-07T12:31:22.767Z,15.43
2019-06-07T12:33:53.737Z,12.70
2019-06-07T12:36:24.553Z,14.27
2019-06-07T12:38:55.289Z,20.33
2019-06-07T12:41:26.463Z,19.97
2019-06-07T12:43:59.249Z,14.23
2019-06-07T12:46:29.888Z,12.93
2019-06-07T12:49:00.822Z,14.17
2019-06-07T12:51:31.721Z,22.87
2019-06-07T12:54:02.578Z,36.83
2019-06-07T12:56:33.384Z,15.37
2019-06-07T12:59:04.367Z,15.43
2019-06-07T13:01:35.203Z,15.50
2019-06-07T13:04:05.254Z,14.97
2019-06-07T13:06:36.174Z,14.43
2019-06-07T13:09:08.165Z,13.87
2019-06-07T13:11:39.479Z,15.97
2019-06-07T13:14:10.346Z,27.40
2019-06-07T13:16:41.210Z,14.57
2019-06-07T13:19:12.107Z,19.53
2019-06-07T13:21:43.043Z,22.83
2019-06-07T13:24:13.833Z,17.00
2019-06-07T13:26:44.657Z,11.80
2019-06-07T13:29:16.422Z,12.73
2019-06-07T13:31:47.506Z,13.60
2019-06-07T13:34:18.687Z,13.60
2019-06-07T13:36:50.058Z,12.30
2019-06-07T13:39:24.585Z,13.27
2019-06-07T13:41:54.416Z,14.53
2019-06-07T13:44:25.774Z,10.73
2019-06-07T13:46:57.063Z,16.77
2019-06-07T13:49:27.911Z,12.80
2019-06-07T13:51:58.773Z,12.57
2019-06-07T13:54:29.772Z,10.20
2019-06-07T13:57:02.870Z,12.07
2019-06-07T13:59:33.554Z,13.57
2019-06-07T14:02:04.665Z,12.80
2019-06-07T14:04:35.621Z,9.43
2019-06-07T14:07:06.560Z,11.27
2019-06-07T14:09:37.505Z,11.33
2019-06-07T14:12:12.756Z,60.27
2019-06-07T14:14:46.805Z,14.97
2019-06-07T14:17:18.773Z,11.73
2019-06-07T14:20:13.675Z,18.27
2019-06-07T14:23:07.471Z,12.37
2019-06-07T14:25:56.624Z,9.67
2019-06-07T14:28:33.805Z,15.07
2019-06-07T14:31:07.079Z,10.70
2019-06-07T14:33:58.588Z,10.40
2019-06-07T14:36:47.640Z,55.27
2019-06-07T14:39:27.009Z,53.67
2019-06-07T14:42:09.193Z,12.30
2019-06-07T14:44:41.816Z,11.80
2019-06-07T14:47:17.243Z,16.23
2019-06-07T14:49:54.380Z,12.87
2019-06-07T14:52:30.694Z,10.67
2019-06-07T14:55:05.282Z,11.00
2019-06-07T14:57:56.921Z,10.00
2019-06-07T15:00:58.479Z,9.07
2019-06-07T15:03:46.676Z,8.00
2019-06-07T15:06:22.321Z,8.37
2019-06-07T15:09:12.728Z,6.87
2019-06-07T15:11:47.966Z,13.27
2019-06-07T15:14:19.710Z,7.90
2019-06-07T15:16:51.576Z,17.67
2019-06-07T15:19:24.082Z,11.13
2019-06-07T15:21:54.959Z,8.80
2019-06-07T15:24:25.851Z,9.67
2019-06-07T15:26:57.914Z,11.60
2019-06-07T15:29:29.759Z,12.87
2019-06-07T15:32:00.894Z,13.47
2019-06-07T15:34:32.367Z,12.13
2019-06-07T15:37:03.576Z,15.63
2019-06-07T15:39:34.664Z,15.23
2019-06-07T15:42:05.954Z,14.93
2019-06-07T15:44:37.414Z,16.60
2019-06-07T15:47:08.346Z,9.27
2019-06-07T15:49:40.327Z,13.30
2019-06-07T15:52:11.429Z,30.23
2019-06-07T15:54:42.233Z,16.67
2019-06-07T15:57:13.269Z,16.07
2019-06-07T15:59:44.214Z,10.03
2019-06-07T16:02:15.366Z,9.53
2019-06-07T16:04:46.070Z,10.17
2019-06-07T16:07:17.008Z,13.87
2019-06-07T16:09:47.771Z,10.93
2019-06-07T16:12:18.644Z,15.23
2019-06-07T16:14:49.355Z,9.63
2019-06-07T16:17:21.465Z,10.97
2019-06-07T16:19:52.330Z,7.17
2019-06-07T16:22:23.118Z,9.37
2019-06-07T16:24:53.861Z,8.37
2019-06-07T16:27:24.645Z,8.10
2019-06-07T16:29:56.480Z,9.70
2019-06-07T16:32:27.225Z,9.93
2019-06-07T16:34:57.995Z,11.37
2019-06-07T16:37:28.878Z,7.73
2019-06-07T16:39:59.796Z,14.90
2019-06-07T16:42:30.833Z,13.93
2019-06-07T16:45:01.675Z,9.80
2019-06-07T16:47:32.465Z,10.47
2019-06-07T16:50:03.386Z,13.30
2019-06-07T16:52:34.134Z,9.77
2019-06-07T16:55:05.226Z,9.33
2019-06-07T16:57:36.669Z,9.40
2019-06-07T17:00:08.816Z,15.87
2019-06-07T17:02:40.222Z,11.37
2019-06-07T17:05:12.260Z,12.13
2019-06-07T17:07:44.653Z,9.27
2019-06-07T17:10:15.642Z,8.23
2019-06-07T17:12:46.930Z,8.77
2019-06-07T17:15:19.046Z,6.80
2019-06-07T17:17:49.928Z,8.63
2019-06-07T17:20:21.565Z,7.00
2019-06-07T17:22:52.390Z,7.40
2019-06-07T17:25:23.232Z,8.50
2019-06-07T17:27:54.044Z,6.97
2019-06-07T17:30:24.937Z,6.90
2019-06-07T17:32:59.248Z,7.63
2019-06-07T17:35:28.594Z,6.97
2019-06-07T17:37:59.504Z,9.80
2019-06-07T17:40:30.318Z,9.97
2019-06-07T17:43:01.116Z,10.53
2019-06-07T17:45:31.908Z,10.03
2019-06-07T17:48:03.124Z,11.07
2019-06-07T17:50:34.240Z,10.33
2019-06-07T17:53:05.160Z,9.97
2019-06-07T17:55:36.584Z,10.83
2019-06-07T17:58:07.682Z,17.27
2019-06-07T18:00:53.026Z,19.70
2019-06-07T18:03:24.244Z,10.70
2019-06-07T18:05:55.297Z,9.30
2019-06-07T18:08:26.644Z,10.27
2019-06-07T18:10:57.451Z,9.37
2019-06-07T18:13:28.357Z,13.70
2019-06-07T18:15:59.916Z,11.73
2019-06-07T18:18:31.010Z,12.87
2019-06-07T18:21:01.814Z,17.23
2019-06-07T18:23:32.645Z,14.23
2019-06-07T18:26:03.495Z,15.73
2019-06-07T18:28:32.503Z,61.33
2019-06-07T18:31:03.451Z,18.90
2019-06-07T18:33:34.302Z,13.33
2019-06-07T18:36:05.632Z,15.87
2019-06-07T18:41:17.328Z,16.53
2019-06-07T18:43:49.178Z,15.33
2019-06-07T18:46:21.355Z,18.30
2019-06-07T18:48:52.514Z,17.80
2019-06-07T18:51:23.654Z,18.27
2019-06-07T18:53:58.119Z,21.40
2019-06-07T18:56:30.804Z,23.77
2019-06-07T18:59:04.945Z,23.03
2019-06-07T19:01:40.164Z,25.33
2019-06-07T19:04:11.273Z,26.67
2019-06-07T19:06:42.035Z,25.93
2019-06-07T19:09:12.818Z,41.77
2019-06-07T19:11:43.639Z,31.30
2019-06-07T19:14:14.391Z,34.30
2019-06-07T19:16:45.122Z,32.33
2019-06-07T19:19:15.973Z,41.77
2019-06-07T19:21:46.751Z,51.97
2019-06-07T19:24:17.530Z,50.90
2019-06-07T19:26:48.275Z,42.07
2019-06-07T19:29:23.324Z,40.13
2019-06-07T19:32:11.011Z,54.27
2019-06-07T19:34:46.720Z,39.97
2019-06-07T19:37:21.194Z,76.93
2019-06-07T19:39:57.939Z,88.67
2019-06-07T19:42:47.909Z,58.53
2019-06-07T19:45:39.782Z,62.87
2019-06-07T19:48:32.798Z,71.37
2019-06-07T19:51:22.873Z,93.53
2019-06-07T19:54:10.293Z,75.37
2019-06-07T19:57:01.642Z,153.43
2019-06-07T19:59:35.914Z,73.10
2019-06-07T20:02:29.808Z,63.47
2019-06-07T20:05:18.835Z,77.80
2019-06-07T20:07:54.464Z,166.13
2019-06-07T20:10:43.028Z,334.30
2019-06-07T20:13:37.859Z,70.40
2019-06-07T20:16:29.170Z,60.20
2019-06-07T20:19:17.765Z,66.63
2019-06-07T20:22:09.753Z,149.47
2019-06-07T20:25:05.458Z,214.67
2019-06-07T20:27:53.364Z,92.13
2019-06-07T20:30:44.284Z,51.50
2019-06-07T20:33:43.093Z,67.33
2019-06-07T20:36:34.168Z,89.80
2019-06-07T20:39:36.010Z,51.53
2019-06-07T20:42:39.148Z,55.40
2019-06-07T20:45:34.914Z,54.50
2019-06-07T20:48:26.136Z,59.17
2019-06-07T20:54:03.136Z,46.80
2019-06-07T20:57:02.644Z,42.93
2019-06-07T21:00:10.549Z,43.90
2019-06-07T21:03:00.995Z,42.67
2019-06-07T21:05:50.328Z,37.20
2019-06-07T21:08:44.388Z,38.43
2019-06-07T21:11:36.427Z,34.70
2019-06-07T21:14:32.979Z,36.23
2019-06-07T21:17:27.408Z,40.50
2019-06-07T21:20:02.807Z,40.40
2019-06-07T21:22:58.911Z,40.97
2019-06-07T21:33:36.507Z,36.50
2019-06-07T21:39:08.269Z,39.30
2019-06-07T21:41:57.069Z,39.77
2019-06-07T21:44:44.771Z,38.40
2019-06-07T21:47:32.229Z,37.97
2019-06-07T21:50:19.270Z,38.17
2019-06-07T21:53:06.463Z,44.27
2019-06-07T21:58:22.003Z,47.83
2019-06-07T22:01:17.961Z,48.83
2019-06-07T22:04:05.317Z,79.83
2019-06-07T22:09:19.324Z,121.10
2019-06-07T22:11:52.461Z,77.83
2019-06-07T22:14:36.050Z,102.40
2019-06-07T22:17:10.940Z,254.93
2019-06-07T22:19:42.458Z,214.50
2019-06-07T22:22:14.908Z,78.33
2019-06-07T22:24:46.658Z,54.27
2019-06-07T22:27:18.468Z,51.30
2019-06-07T22:29:50.119Z,58.43
2019-06-07T22:32:21.848Z,263.33
2019-06-07T22:34:53.507Z,414.23
2019-06-07T22:37:25.238Z,70.87
2019-06-07T22:39:56.892Z,57.33
2019-06-07T22:42:28.599Z,129.13
2019-06-07T22:45:00.341Z,114.23
2019-06-07T22:47:32.804Z,60.83
2019-06-07T22:50:05.005Z,65.60
2019-06-07T22:52:36.189Z,71.57
2019-06-07T22:55:07.725Z,166.33
2019-06-07T22:58:04.120Z,67.77
2019-06-07T23:00:36.575Z,52.83
2019-06-07T23:03:08.526Z,55.10
2019-06-07T23:05:39.983Z,63.43
2019-06-07T23:08:11.380Z,96.43
2019-06-07T23:10:43.621Z,387.67
2019-06-07T23:13:15.485Z,118.80
2019-06-07T23:15:47.400Z,278.23
2019-06-07T23:18:19.766Z,163.63
2019-06-07T23:20:51.626Z,202.40
2019-06-07T23:23:23.623Z,229.17
2019-06-07T23:25:55.494Z,180.77
2019-06-07T23:28:27.257Z,304.10
2019-06-07T23:30:58.305Z,84.63
2019-06-07T23:33:30.001Z,232.73
2019-06-07T23:36:00.967Z,322.93
2019-06-07T23:38:31.964Z,91.80
2019-06-07T23:41:03.882Z,352.33
2019-06-07T23:43:34.940Z,284.37
2019-06-07T23:46:06.153Z,361.63
2019-06-07T23:48:37.152Z,114.70
2019-06-07T23:51:08.169Z,96.97
2019-06-07T23:53:39.177Z,101.70
2019-06-07T23:56:10.218Z,101.93
2019-06-07T23:58:42.040Z,118.03
